createdAt,value
2019-05-10T00:00:10.701Z,7.30
2019-05-10T00:02:57.365Z,6.05
2019-05-10T00:05:44.124Z,6.03
2019-05-10T00:08:30.647Z,6.55
2019-05-10T00:11:01.288Z,6.10
2019-05-10T00:13:31.484Z,4.00
2019-05-10T00:16:00.230Z,4.90
2019-05-10T00:18:28.719Z,4.70
2019-05-10T00:20:57.256Z,5.75
2019-05-10T00:23:25.747Z,6.33
2019-05-10T00:25:54.283Z,4.92
2019-05-10T00:28:22.771Z,6.35
2019-05-10T00:30:51.240Z,4.95
2019-05-10T00:33:19.738Z,6.72
2019-05-10T00:35:48.278Z,5.35
2019-05-10T00:38:16.766Z,3.77
2019-05-10T00:40:45.239Z,4.92
2019-05-10T00:43:13.740Z,4.80
2019-05-10T00:45:42.195Z,4.22
2019-05-10T00:48:10.687Z,6.00
2019-05-10T00:50:39.150Z,6.27
2019-05-10T00:53:07.645Z,3.70
2019-05-10T00:55:36.112Z,3.17
2019-05-10T00:58:04.780Z,3.77
2019-05-10T01:00:33.245Z,4.42
2019-05-10T01:03:01.712Z,3.23
2019-05-10T01:05:30.212Z,4.93
2019-05-10T01:07:58.729Z,5.53
2019-05-10T01:10:27.236Z,5.27
2019-05-10T01:12:55.709Z,5.33
2019-05-10T01:15:24.270Z,5.58
2019-05-10T01:17:52.744Z,3.50
2019-05-10T01:20:21.302Z,6.50
2019-05-10T01:22:49.770Z,4.75
2019-05-10T01:25:33.636Z,5.30
2019-05-10T01:27:48.452Z,3.23
2019-05-10T01:30:18.077Z,5.72
2019-05-10T01:32:46.615Z,6.00
2019-05-10T01:35:15.181Z,3.10
2019-05-10T01:37:43.646Z,3.83
2019-05-10T01:40:12.194Z,4.30
2019-05-10T01:42:40.658Z,4.10
2019-05-10T01:45:09.393Z,3.93
2019-05-10T01:47:37.854Z,3.12
2019-05-10T01:50:07.381Z,5.03
2019-05-10T01:52:35.853Z,3.12
2019-05-10T01:55:06.579Z,3.77
2019-05-10T01:57:35.047Z,3.47
2019-05-10T02:00:05.214Z,2.37
2019-05-10T02:02:33.768Z,3.17
2019-05-10T02:05:02.432Z,3.37
2019-05-10T02:07:30.886Z,3.77
2019-05-10T02:09:59.385Z,3.15
2019-05-10T02:12:27.854Z,3.42
2019-05-10T02:14:56.344Z,2.93
2019-05-10T02:17:24.887Z,3.50
2019-05-10T02:19:53.380Z,3.27
2019-05-10T02:22:21.851Z,5.53
2019-05-10T02:24:50.348Z,4.33
2019-05-10T02:27:18.813Z,3.73
2019-05-10T02:29:47.375Z,3.20
2019-05-10T02:32:15.841Z,4.70
2019-05-10T02:34:44.338Z,5.87
2019-05-10T02:37:12.799Z,3.63
2019-05-10T02:39:41.300Z,4.37
2019-05-10T02:42:09.765Z,3.17
2019-05-10T02:44:38.259Z,3.77
2019-05-10T02:47:06.737Z,2.70
2019-05-10T02:49:35.223Z,4.13
2019-05-10T02:52:04.021Z,3.37
2019-05-10T02:54:32.563Z,2.90
2019-05-10T02:57:03.298Z,3.03
2019-05-10T02:59:33.301Z,3.40
2019-05-10T03:02:05.272Z,3.85
2019-05-10T03:04:36.321Z,3.37
2019-05-10T03:07:06.191Z,4.47
2019-05-10T03:09:35.346Z,4.65
2019-05-10T03:12:06.891Z,2.93
2019-05-10T03:14:40.508Z,4.40
2019-05-10T03:17:09.563Z,4.60
2019-05-10T03:19:38.555Z,3.50
2019-05-10T03:22:07.183Z,3.20
2019-05-10T03:24:35.652Z,3.77
2019-05-10T03:27:04.217Z,3.80
2019-05-10T03:29:32.924Z,3.73
2019-05-10T03:32:01.717Z,8.00
2019-05-10T03:34:30.334Z,4.50
2019-05-10T03:36:58.823Z,4.53
2019-05-10T03:39:27.655Z,3.30
2019-05-10T03:41:56.150Z,3.83
2019-05-10T03:44:24.625Z,2.62
2019-05-10T03:46:53.108Z,5.90
2019-05-10T03:49:21.576Z,2.90
2019-05-10T03:51:50.070Z,4.90
2019-05-10T03:54:18.535Z,5.27
2019-05-10T03:56:47.027Z,3.13
2019-05-10T03:59:15.493Z,4.03
2019-05-10T04:01:43.986Z,5.15
2019-05-10T04:04:12.450Z,5.50
2019-05-10T04:06:40.950Z,6.33
2019-05-10T04:09:09.487Z,4.72
2019-05-10T04:11:37.980Z,4.97
2019-05-10T04:14:06.441Z,6.22
2019-05-10T04:16:34.935Z,4.03
2019-05-10T04:19:03.401Z,6.27
2019-05-10T04:21:31.922Z,3.93
2019-05-10T04:24:00.367Z,3.57
2019-05-10T04:26:28.863Z,6.27
2019-05-10T04:28:57.329Z,5.27
2019-05-10T04:31:25.819Z,5.93
2019-05-10T04:33:54.287Z,4.47
2019-05-10T04:36:22.774Z,7.17
2019-05-10T04:38:51.251Z,5.63
2019-05-10T04:41:19.736Z,4.50
2019-05-10T04:43:48.198Z,4.50
2019-05-10T04:46:16.699Z,7.17
2019-05-10T04:48:45.167Z,5.50
2019-05-10T04:51:13.655Z,5.70
2019-05-10T04:53:42.123Z,4.43
2019-05-10T04:56:10.618Z,4.37
2019-05-10T04:58:39.161Z,4.17
2019-05-10T05:01:07.717Z,5.23
2019-05-10T05:03:36.187Z,3.67
2019-05-10T05:06:05.076Z,6.20
2019-05-10T05:08:33.559Z,3.23
2019-05-10T05:11:02.094Z,4.33
2019-05-10T05:13:30.590Z,4.15
2019-05-10T05:15:59.061Z,3.93
2019-05-10T05:18:27.548Z,4.00
2019-05-10T05:20:56.019Z,3.30
2019-05-10T05:23:24.519Z,4.33
2019-05-10T05:25:53.044Z,3.92
2019-05-10T05:28:23.136Z,4.00
2019-05-10T05:30:51.731Z,4.43
2019-05-10T05:33:20.227Z,5.10
2019-05-10T05:35:48.688Z,7.20
2019-05-10T05:38:17.184Z,7.17
2019-05-10T05:40:45.650Z,6.95
2019-05-10T05:43:14.149Z,7.75
2019-05-10T05:45:42.616Z,7.33
2019-05-10T05:48:11.105Z,7.47
2019-05-10T05:50:39.574Z,7.93
2019-05-10T05:53:08.064Z,8.17
2019-05-10T05:55:36.546Z,8.57
2019-05-10T05:58:07.121Z,8.17
2019-05-10T06:00:37.947Z,7.97
2019-05-10T06:03:05.442Z,9.40
2019-05-10T06:05:37.111Z,8.87
2019-05-10T06:08:04.213Z,8.60
2019-05-10T06:10:32.658Z,8.73
2019-05-10T06:13:01.217Z,8.63
2019-05-10T06:15:31.564Z,8.57
2019-05-10T06:18:03.602Z,8.10
2019-05-10T06:20:30.159Z,8.83
2019-05-10T06:23:06.602Z,10.17
2019-05-10T06:25:39.234Z,8.07
2019-05-10T06:27:59.052Z,9.00
2019-05-10T06:30:27.520Z,8.57
2019-05-10T06:33:00.698Z,8.73
2019-05-10T06:35:26.207Z,7.77
2019-05-10T06:37:54.697Z,8.20
2019-05-10T06:40:32.612Z,8.20
2019-05-10T06:42:53.389Z,8.93
2019-05-10T06:45:23.021Z,8.30
2019-05-10T06:47:53.419Z,8.67
2019-05-10T06:50:28.864Z,7.53
2019-05-10T06:52:52.514Z,7.95
2019-05-10T06:55:20.935Z,8.47
2019-05-10T06:57:50.414Z,8.67
2019-05-10T07:00:19.631Z,9.13
2019-05-10T07:02:48.099Z,8.70
2019-05-10T07:05:16.589Z,7.83
2019-05-10T07:07:45.662Z,7.90
2019-05-10T07:10:18.971Z,8.27
2019-05-10T07:12:45.453Z,8.20
2019-05-10T07:15:14.218Z,7.90
2019-05-10T07:17:46.962Z,7.97
2019-05-10T07:20:12.970Z,7.03
2019-05-10T07:22:41.436Z,7.95
2019-05-10T07:25:10.014Z,7.23
2019-05-10T07:27:38.884Z,7.53
2019-05-10T07:30:07.775Z,8.10
2019-05-10T07:32:36.270Z,7.83
2019-05-10T07:35:06.670Z,7.53
2019-05-10T07:37:35.579Z,8.75
2019-05-10T07:40:08.021Z,8.38
2019-05-10T07:42:39.718Z,9.03
2019-05-10T07:45:09.749Z,9.38
2019-05-10T07:47:38.221Z,8.37
2019-05-10T07:50:09.654Z,9.83
2019-05-10T07:52:43.667Z,8.80
2019-05-10T07:55:10.405Z,8.30
2019-05-10T07:57:38.238Z,8.18
2019-05-10T08:00:07.943Z,7.55
2019-05-10T08:02:36.468Z,9.25
2019-05-10T08:05:11.005Z,8.33
2019-05-10T08:07:38.691Z,8.43
2019-05-10T08:10:08.788Z,9.08
2019-05-10T08:12:41.404Z,8.93
2019-05-10T08:15:09.496Z,8.10
2019-05-10T08:17:43.287Z,9.10
2019-05-10T08:20:14.599Z,8.60
2019-05-10T08:22:41.322Z,8.43
2019-05-10T08:25:09.232Z,8.38
2019-05-10T08:27:43.932Z,7.53
2019-05-10T08:30:24.801Z,7.12
2019-05-10T08:32:38.698Z,6.72
2019-05-10T08:35:15.934Z,6.50
2019-05-10T08:37:38.179Z,6.95
2019-05-10T08:40:06.851Z,7.08
2019-05-10T08:42:44.208Z,6.67
2019-05-10T08:45:08.906Z,7.10
2019-05-10T08:47:37.323Z,7.45
2019-05-10T08:50:22.374Z,7.65
2019-05-10T08:52:36.329Z,7.58
2019-05-10T08:55:07.159Z,7.42
2019-05-10T08:57:43.422Z,7.22
2019-05-10T09:00:09.085Z,7.65
2019-05-10T09:02:37.676Z,7.33
2019-05-10T09:05:06.309Z,9.93
2019-05-10T09:07:38.850Z,8.05
2019-05-10T09:10:09.586Z,9.13
2019-05-10T09:12:44.218Z,9.00
2019-05-10T09:15:10.345Z,8.50
2019-05-10T09:17:37.725Z,8.65
2019-05-10T09:20:11.945Z,8.25
2019-05-10T09:22:38.870Z,9.33
2019-05-10T09:25:07.371Z,9.25
2019-05-10T09:27:35.834Z,9.10
2019-05-10T09:30:08.106Z,9.70
2019-05-10T09:32:35.240Z,9.30
2019-05-10T09:35:07.863Z,10.03
2019-05-10T09:37:34.803Z,9.33
2019-05-10T09:40:09.753Z,10.13
2019-05-10T09:42:39.981Z,9.60
2019-05-10T09:45:09.667Z,8.43
2019-05-10T09:47:37.164Z,8.83
2019-05-10T09:50:06.699Z,7.15
2019-05-10T09:52:35.164Z,6.53
2019-05-10T09:55:10.190Z,6.30
2019-05-10T09:57:34.629Z,6.62
2019-05-10T10:00:04.127Z,6.15
2019-05-10T10:02:33.860Z,6.60
2019-05-10T10:05:02.688Z,6.58
2019-05-10T10:07:33.464Z,8.03
2019-05-10T10:10:01.367Z,6.90
2019-05-10T10:12:29.877Z,6.80
2019-05-10T10:14:58.351Z,9.28
2019-05-10T10:17:27.498Z,6.58
2019-05-10T10:19:57.883Z,11.10
2019-05-10T10:22:27.831Z,8.93
2019-05-10T10:25:00.443Z,8.33
2019-05-10T10:27:34.336Z,8.50
2019-05-10T10:29:57.399Z,6.83
2019-05-10T10:32:31.345Z,7.40
2019-05-10T10:34:57.807Z,7.22
2019-05-10T10:37:28.990Z,5.80
2019-05-10T10:40:00.731Z,5.92
2019-05-10T10:42:26.845Z,7.30
2019-05-10T10:44:55.314Z,6.10
2019-05-10T10:47:30.458Z,8.45
2019-05-10T10:49:53.996Z,6.75
2019-05-10T10:52:22.492Z,6.05
2019-05-10T10:54:50.958Z,5.37
2019-05-10T10:57:19.444Z,5.47
2019-05-10T10:59:47.919Z,6.62
2019-05-10T11:02:32.029Z,8.55
2019-05-10T11:04:48.823Z,6.47
2019-05-10T11:07:16.812Z,6.92
2019-05-10T11:09:45.279Z,6.05
2019-05-10T11:12:14.618Z,6.58
2019-05-10T11:14:45.581Z,5.87
2019-05-10T11:17:14.162Z,4.85
2019-05-10T11:19:42.631Z,4.10
2019-05-10T11:22:11.121Z,3.52
2019-05-10T11:24:39.593Z,3.72
2019-05-10T11:27:12.993Z,3.83
2019-05-10T11:29:38.274Z,3.55
2019-05-10T11:32:15.890Z,3.80
2019-05-10T11:34:37.950Z,3.60
2019-05-10T11:37:07.500Z,2.85
2019-05-10T11:39:42.126Z,5.53
2019-05-10T11:42:07.319Z,4.45
2019-05-10T11:44:35.006Z,2.40
2019-05-10T11:47:03.578Z,3.80
2019-05-10T11:49:32.051Z,5.37
2019-05-10T11:52:01.674Z,4.72
2019-05-10T11:54:31.913Z,4.37
2019-05-10T11:57:06.118Z,6.97
2019-05-10T11:59:33.770Z,2.92
2019-05-10T12:02:02.872Z,4.80
2019-05-10T12:04:38.850Z,2.70
2019-05-10T12:07:05.887Z,3.60
2019-05-10T12:09:31.864Z,3.35
2019-05-10T12:12:03.438Z,2.67
2019-05-10T12:14:30.504Z,2.87
2019-05-10T12:17:05.640Z,3.67
2019-05-10T12:19:36.680Z,3.08
2019-05-10T12:22:03.572Z,5.10
2019-05-10T12:24:45.312Z,3.65
2019-05-10T12:27:17.256Z,3.47
2019-05-10T12:29:31.655Z,1.10
2019-05-10T12:32:00.225Z,4.37
2019-05-10T12:34:30.987Z,5.10
2019-05-10T12:37:03.876Z,2.92
2019-05-10T12:39:30.998Z,2.30
2019-05-10T12:41:59.458Z,1.65
2019-05-10T12:44:27.951Z,1.52
2019-05-10T12:46:56.430Z,2.83
2019-05-10T12:49:24.919Z,2.70
2019-05-10T12:51:53.389Z,2.20
2019-05-10T12:54:23.945Z,2.65
2019-05-10T12:56:52.082Z,1.98
2019-05-10T12:59:20.577Z,4.33
2019-05-10T13:01:49.050Z,3.30
2019-05-10T13:04:18.331Z,3.33
2019-05-10T13:06:46.888Z,4.75
2019-05-10T13:09:15.386Z,3.33
2019-05-10T13:11:43.880Z,3.08
2019-05-10T13:14:13.299Z,3.17
2019-05-10T13:16:41.769Z,3.92
2019-05-10T13:19:14.194Z,2.77
2019-05-10T13:21:40.533Z,2.45
2019-05-10T13:24:09.089Z,5.20
2019-05-10T13:26:37.555Z,3.90
2019-05-10T13:29:07.841Z,3.75
2019-05-10T13:31:42.097Z,2.17
2019-05-10T13:34:06.450Z,4.08
2019-05-10T13:36:37.043Z,4.47
2019-05-10T13:39:06.078Z,2.72
2019-05-10T13:41:34.543Z,2.92
2019-05-10T13:44:04.879Z,2.27
2019-05-10T13:46:33.467Z,4.20
2019-05-10T13:49:02.003Z,3.52
2019-05-10T13:51:30.429Z,2.45
2019-05-10T13:54:00.871Z,2.45
2019-05-10T13:56:29.110Z,3.33
2019-05-10T13:58:57.702Z,2.20
2019-05-10T14:01:26.502Z,1.87
2019-05-10T14:04:01.217Z,3.08
2019-05-10T14:06:25.178Z,2.45
2019-05-10T14:08:53.680Z,2.22
2019-05-10T14:11:22.145Z,2.33
2019-05-10T14:13:50.711Z,3.12
2019-05-10T14:16:22.042Z,1.90
2019-05-10T14:18:49.368Z,2.15
2019-05-10T14:21:17.865Z,3.30
2019-05-10T14:23:46.336Z,2.02
2019-05-10T14:26:15.878Z,1.82
2019-05-10T14:28:47.252Z,2.72
2019-05-10T14:31:15.236Z,2.08
2019-05-10T14:33:49.713Z,2.83
2019-05-10T14:36:13.909Z,2.83
2019-05-10T14:38:47.254Z,2.02
2019-05-10T14:41:13.382Z,1.32
2019-05-10T14:43:41.975Z,21.95
2019-05-10T14:46:13.798Z,4.37
2019-05-10T14:48:40.683Z,3.58
2019-05-10T14:51:11.655Z,2.60
2019-05-10T14:53:39.359Z,1.95
2019-05-10T14:56:14.037Z,2.08
2019-05-10T14:58:38.039Z,2.17
2019-05-10T15:01:06.536Z,2.08
2019-05-10T15:03:44.383Z,1.65
2019-05-10T15:06:05.303Z,3.17
2019-05-10T15:08:33.777Z,2.40
2019-05-10T15:11:02.301Z,5.40
2019-05-10T15:13:34.573Z,2.80
2019-05-10T15:16:00.987Z,2.62
2019-05-10T15:18:29.465Z,2.42
2019-05-10T15:20:57.978Z,3.50
2019-05-10T15:23:26.445Z,2.58
2019-05-10T15:25:57.595Z,1.35
2019-05-10T15:28:25.145Z,2.02
2019-05-10T15:30:53.636Z,3.83
2019-05-10T15:33:22.116Z,1.52
2019-05-10T15:35:52.053Z,2.22
2019-05-10T15:38:20.835Z,3.75
2019-05-10T15:40:49.342Z,1.47
2019-05-10T15:43:18.959Z,1.60
2019-05-10T15:45:52.658Z,3.42
2019-05-10T15:48:17.795Z,2.12
2019-05-10T15:50:46.369Z,2.98
2019-05-10T15:53:19.345Z,3.47
2019-05-10T15:55:45.093Z,2.27
2019-05-10T15:58:13.593Z,2.05
2019-05-10T16:00:42.047Z,2.30
2019-05-10T16:03:10.550Z,3.15
2019-05-10T16:05:43.512Z,2.35
2019-05-10T16:08:09.249Z,2.05
2019-05-10T16:10:39.347Z,2.27
2019-05-10T16:13:07.949Z,3.33
2019-05-10T16:15:36.415Z,2.37
2019-05-10T16:18:05.143Z,4.97
2019-05-10T16:20:37.293Z,2.80
2019-05-10T16:23:08.582Z,2.00
2019-05-10T16:25:41.946Z,1.10
2019-05-10T16:28:04.376Z,2.60
2019-05-10T16:30:36.239Z,2.30
2019-05-10T16:33:03.091Z,2.75
2019-05-10T16:35:38.848Z,3.22
2019-05-10T16:38:01.787Z,2.22
2019-05-10T16:40:30.264Z,4.40
2019-05-10T16:42:58.767Z,4.28
2019-05-10T16:45:27.317Z,2.55
2019-05-10T16:47:55.811Z,2.20
2019-05-10T16:50:25.991Z,1.82
2019-05-10T16:52:59.319Z,6.17
2019-05-10T16:55:24.715Z,4.17
2019-05-10T16:57:53.218Z,2.47
2019-05-10T17:00:22.636Z,2.10
2019-05-10T17:02:51.143Z,3.90
2019-05-10T17:05:19.614Z,2.80
2019-05-10T17:07:48.109Z,3.45
2019-05-10T17:10:16.648Z,2.50
2019-05-10T17:12:45.155Z,2.12
2019-05-10T17:15:13.709Z,2.30
2019-05-10T17:17:44.878Z,5.15
2019-05-10T17:20:15.779Z,3.20
2019-05-10T17:22:42.971Z,2.60
2019-05-10T17:25:11.587Z,2.95
2019-05-10T17:27:40.092Z,2.65
2019-05-10T17:30:09.107Z,2.90
2019-05-10T17:32:37.613Z,4.45
2019-05-10T17:35:08.106Z,4.60
2019-05-10T17:37:37.493Z,2.65
2019-05-10T17:40:10.139Z,2.12
2019-05-10T17:42:41.254Z,3.52
2019-05-10T17:45:10.338Z,4.35
2019-05-10T17:47:38.916Z,2.70
2019-05-10T17:50:08.040Z,2.55
2019-05-10T17:52:36.539Z,3.22
2019-05-10T17:55:10.965Z,3.35
2019-05-10T17:57:38.505Z,2.10
2019-05-10T18:00:10.923Z,3.30
2019-05-10T18:02:39.432Z,3.62
2019-05-10T18:05:08.639Z,2.52
2019-05-10T18:07:37.346Z,2.50
2019-05-10T18:10:06.744Z,2.65
2019-05-10T18:12:35.846Z,4.87
2019-05-10T18:15:06.893Z,3.42
2019-05-10T18:17:36.981Z,2.55
2019-05-10T18:20:06.729Z,2.95
2019-05-10T18:22:43.704Z,3.15
2019-05-10T18:25:05.948Z,2.45
2019-05-10T18:27:34.417Z,3.22
2019-05-10T18:30:02.986Z,6.30
2019-05-10T18:32:35.700Z,3.90
2019-05-10T18:35:01.673Z,2.35
2019-05-10T18:37:30.147Z,3.67
2019-05-10T18:39:58.658Z,3.87
2019-05-10T18:42:27.943Z,2.92
2019-05-10T18:44:56.596Z,2.80
2019-05-10T18:47:25.074Z,3.37
2019-05-10T18:49:53.585Z,3.67
2019-05-10T18:52:22.049Z,4.40
2019-05-10T18:54:50.551Z,3.97
2019-05-10T18:57:19.653Z,2.90
2019-05-10T18:59:48.212Z,4.92
2019-05-10T19:02:17.879Z,4.00
2019-05-10T19:04:52.203Z,5.33
2019-05-10T19:07:17.478Z,3.95
2019-05-10T19:09:45.984Z,3.50
2019-05-10T19:12:18.861Z,4.85
2019-05-10T19:14:44.679Z,3.98
2019-05-10T19:17:13.180Z,5.40
2019-05-10T19:19:42.365Z,3.67
2019-05-10T19:22:11.011Z,11.35
2019-05-10T19:24:39.513Z,3.52
2019-05-10T19:27:09.379Z,3.43
2019-05-10T19:29:45.379Z,3.83
2019-05-10T19:32:11.327Z,4.90
2019-05-10T19:34:38.370Z,3.93
2019-05-10T19:37:06.906Z,3.50
2019-05-10T19:39:35.411Z,3.10
2019-05-10T19:42:06.171Z,4.53
2019-05-10T19:44:34.744Z,5.23
2019-05-10T19:47:04.501Z,6.08
2019-05-10T19:49:32.988Z,4.30
2019-05-10T19:52:01.461Z,3.87
2019-05-10T19:54:29.952Z,4.53
2019-05-10T19:56:58.426Z,6.37
2019-05-10T19:59:26.941Z,5.07
2019-05-10T20:01:55.407Z,4.03
2019-05-10T20:04:23.898Z,5.23
2019-05-10T20:06:52.387Z,4.10
2019-05-10T20:09:20.858Z,5.60
2019-05-10T20:11:49.365Z,3.73
2019-05-10T20:14:18.059Z,4.03
2019-05-10T20:16:52.665Z,3.70
2019-05-10T20:19:16.757Z,4.20
2019-05-10T20:21:45.331Z,4.37
2019-05-10T20:24:13.810Z,3.73
2019-05-10T20:26:42.324Z,3.53
2019-05-10T20:29:10.869Z,6.83
2019-05-10T20:31:39.363Z,3.73
2019-05-10T20:34:07.837Z,4.07
2019-05-10T20:36:36.331Z,4.20
2019-05-10T20:39:06.725Z,3.43
2019-05-10T20:41:35.259Z,4.20
2019-05-10T20:44:03.773Z,4.10
2019-05-10T20:46:32.276Z,4.40
2019-05-10T20:49:00.744Z,4.27
2019-05-10T20:51:29.242Z,4.20
2019-05-10T20:53:58.191Z,4.40
2019-05-10T20:56:26.689Z,5.10
2019-05-10T20:58:55.173Z,4.40
2019-05-10T21:01:23.666Z,5.30
2019-05-10T21:03:52.137Z,5.03
2019-05-10T21:06:20.628Z,5.50
2019-05-10T21:08:49.095Z,4.73
2019-05-10T21:11:17.681Z,5.27
2019-05-10T21:13:46.144Z,6.47
2019-05-10T21:16:14.641Z,6.87
2019-05-10T21:18:43.107Z,6.23
2019-05-10T21:21:11.592Z,7.47
2019-05-10T21:23:40.060Z,6.90
2019-05-10T21:26:08.558Z,6.37
2019-05-10T21:28:37.045Z,6.30
2019-05-10T21:31:05.531Z,6.00
2019-05-10T21:33:34.005Z,6.67
2019-05-10T21:36:02.580Z,5.80
2019-05-10T21:38:33.446Z,6.70
2019-05-10T21:41:01.286Z,5.07
2019-05-10T21:43:29.746Z,5.33
2019-05-10T21:45:58.242Z,5.30
2019-05-10T21:48:26.715Z,6.00
2019-05-10T21:50:55.226Z,6.20
2019-05-10T21:53:23.704Z,6.10
2019-05-10T21:55:52.204Z,5.93
2019-05-10T21:58:20.680Z,6.97
2019-05-10T22:00:52.375Z,7.03
2019-05-10T22:03:20.833Z,5.60
2019-05-10T22:05:49.393Z,5.90
2019-05-10T22:08:17.869Z,6.30
2019-05-10T22:10:46.336Z,6.43
2019-05-10T22:13:14.831Z,7.43
2019-05-10T22:15:43.375Z,7.13
2019-05-10T22:18:11.875Z,7.40
2019-05-10T22:20:40.320Z,8.53
2019-05-10T22:23:08.812Z,6.60
2019-05-10T22:25:37.282Z,10.10
2019-05-10T22:28:05.775Z,6.20
2019-05-10T22:30:34.248Z,5.33
2019-05-10T22:33:02.741Z,6.47
2019-05-10T22:35:31.278Z,5.70
2019-05-10T22:37:59.848Z,6.13
2019-05-10T22:40:28.319Z,5.47
2019-05-10T22:42:56.815Z,5.33
2019-05-10T22:45:25.284Z,5.77
2019-05-10T22:47:53.793Z,5.90
2019-05-10T22:50:22.263Z,5.80
2019-05-10T22:52:50.758Z,5.33
2019-05-10T22:55:19.228Z,8.10
2019-05-10T22:57:47.713Z,6.17
2019-05-10T23:00:16.516Z,6.20
2019-05-10T23:02:45.007Z,6.77
2019-05-10T23:05:13.553Z,5.87
2019-05-10T23:07:42.051Z,5.83
2019-05-10T23:10:11.163Z,6.63
2019-05-10T23:12:39.659Z,6.37
2019-05-10T23:15:08.205Z,7.00
2019-05-10T23:17:36.687Z,6.87
2019-05-10T23:20:05.492Z,7.50
2019-05-10T23:22:33.989Z,6.30
2019-05-10T23:25:02.465Z,5.77
2019-05-10T23:27:30.962Z,7.03
2019-05-10T23:29:59.439Z,6.33
2019-05-10T23:32:27.920Z,5.97
2019-05-10T23:34:56.385Z,7.00
2019-05-10T23:37:24.875Z,6.83
2019-05-10T23:39:53.346Z,8.67
2019-05-10T23:42:21.844Z,7.63
2019-05-10T23:44:50.316Z,7.27
2019-05-10T23:47:18.811Z,7.43
2019-05-10T23:49:47.292Z,6.90
2019-05-10T23:52:15.783Z,7.70
2019-05-10T23:54:44.258Z,8.47
2019-05-10T23:57:12.719Z,6.50
2019-05-10T23:59:41.222Z,7.93
